createdAt,value
2022-12-12T00:00:35.556Z,-2.12
2022-12-12T00:03:37.916Z,-2.06
2022-12-12T00:06:40.319Z,-2.32
2022-12-12T00:09:42.639Z,-2.23
2022-12-12T00:12:45.075Z,-2.29
2022-12-12T00:15:47.619Z,-2.25
2022-12-12T00:18:50.078Z,-2.34
2022-12-12T00:21:52.630Z,-2.32
2022-12-12T00:24:55.043Z,-2.29
2022-12-12T00:27:57.649Z,-2.31
2022-12-12T00:30:59.996Z,-2.12
2022-12-12T00:34:02.477Z,-2.18
2022-12-12T00:37:04.862Z,-2.06
2022-12-12T00:40:07.929Z,-2.01
2022-12-12T00:43:11.082Z,-2.02
2022-12-12T00:46:15.295Z,-2.07
2022-12-12T00:49:17.685Z,-1.88
2022-12-12T00:52:20.065Z,-1.85
2022-12-12T00:55:22.507Z,-1.74
2022-12-12T00:58:25.930Z,-1.83
2022-12-12T01:01:30.925Z,-1.89
2022-12-12T01:04:34.531Z,-1.76
2022-12-12T01:07:37.213Z,-1.79
2022-12-12T01:10:40.030Z,-1.61
2022-12-12T01:13:43.585Z,-1.62
2022-12-12T01:16:45.947Z,-1.68
2022-12-12T01:19:48.507Z,-1.73
2022-12-12T01:22:51.007Z,-1.61
2022-12-12T01:26:01.882Z,-1.67
2022-12-12T01:29:04.584Z,-1.64
2022-12-12T01:32:07.032Z,-1.55
2022-12-12T01:35:10.337Z,-1.48
2022-12-12T01:38:13.086Z,-1.59
2022-12-12T01:41:16.522Z,-1.59
2022-12-12T01:44:42.106Z,-1.61
2022-12-12T01:47:44.412Z,-1.69
2022-12-12T01:50:47.234Z,-1.61
2022-12-12T01:53:51.449Z,-1.61
2022-12-12T01:56:54.598Z,-1.52
2022-12-12T01:59:58.154Z,-1.45
2022-12-12T02:03:00.711Z,-1.39
2022-12-12T02:06:05.205Z,-1.41
2022-12-12T02:09:11.150Z,-1.31
2022-12-12T02:12:15.114Z,-1.45
2022-12-12T02:15:19.298Z,-1.40
2022-12-12T02:18:34.647Z,-1.30
2022-12-12T02:21:53.753Z,-1.27
2022-12-12T02:25:20.260Z,-1.29
2022-12-12T02:28:34.425Z,-1.38
2022-12-12T02:31:49.690Z,-1.35
2022-12-12T02:35:16.232Z,-1.33
2022-12-12T02:38:39.658Z,-1.47
2022-12-12T02:41:44.968Z,-1.59
2022-12-12T02:45:32.424Z,-1.33
2022-12-12T02:48:39.702Z,-1.28
2022-12-12T02:51:43.173Z,-1.26
2022-12-12T02:54:45.914Z,-1.23
2022-12-12T02:57:49.510Z,-1.14
2022-12-12T03:01:11.607Z,-1.10
2022-12-12T03:04:49.527Z,-1.05
2022-12-12T03:08:07.479Z,-1.09
2022-12-12T03:11:13.869Z,-0.95
2022-12-12T03:14:25.723Z,-0.91
2022-12-12T03:17:53.838Z,-0.89
2022-12-12T03:21:07.545Z,-0.85
2022-12-12T03:24:23.505Z,-0.87
2022-12-12T03:27:32.535Z,-0.86
2022-12-12T03:30:47.212Z,-0.72
2022-12-12T03:33:53.579Z,-0.71
2022-12-12T03:37:07.934Z,-0.71
2022-12-12T03:40:18.887Z,-0.70
2022-12-12T03:43:27.012Z,-0.68
2022-12-12T03:46:37.975Z,-0.71
2022-12-12T03:49:45.301Z,-0.76
2022-12-12T03:53:14.524Z,-0.76
2022-12-12T03:56:35.565Z,-0.92
2022-12-12T03:59:44.558Z,-0.76
2022-12-12T04:03:22.321Z,-0.86
2022-12-12T04:06:29.064Z,-0.77
2022-12-12T04:09:50.350Z,-0.91
2022-12-12T04:13:16.950Z,-0.84
2022-12-12T04:16:25.428Z,-0.98
2022-12-12T04:19:56.623Z,-0.73
2022-12-12T04:23:18.311Z,-0.91
2022-12-12T04:26:40.464Z,-0.80
2022-12-12T04:29:56.226Z,-0.89
2022-12-12T04:33:12.522Z,-0.84
2022-12-12T04:36:15.646Z,-0.75
2022-12-12T04:39:19.379Z,-0.89
2022-12-12T04:42:25.233Z,-0.81
2022-12-12T04:45:43.038Z,-0.74
2022-12-12T04:49:21.291Z,-0.83
2022-12-12T04:52:24.234Z,-0.66
2022-12-12T04:55:37.985Z,-0.60
2022-12-12T04:58:41.026Z,-0.61
2022-12-12T05:01:52.650Z,-0.65
2022-12-12T05:05:10.544Z,-0.63
2022-12-12T05:08:18.161Z,-0.74
2022-12-12T05:11:22.314Z,-0.72
2022-12-12T05:14:24.698Z,-0.64
2022-12-12T05:17:31.878Z,-0.96
2022-12-12T05:20:35.136Z,-0.71
2022-12-12T05:23:37.591Z,-0.79
2022-12-12T05:26:41.136Z,-0.82
2022-12-12T05:29:43.805Z,-0.78
2022-12-12T05:32:46.106Z,-0.93
2022-12-12T05:35:48.435Z,-0.78
2022-12-12T05:38:50.953Z,-0.91
2022-12-12T05:41:53.323Z,-0.82
2022-12-12T05:44:55.681Z,-0.91
2022-12-12T05:47:57.965Z,-0.80
2022-12-12T05:51:04.204Z,-0.76
2022-12-12T05:54:06.657Z,-0.92
2022-12-12T05:57:09.348Z,-0.71
2022-12-12T06:00:12.067Z,-0.74
2022-12-12T06:03:14.586Z,-0.73
2022-12-12T06:06:17.202Z,-1.01
2022-12-12T06:09:19.670Z,-0.90
2022-12-12T06:12:22.297Z,-0.89
2022-12-12T06:15:24.986Z,-0.93
2022-12-12T06:18:27.383Z,-1.01
2022-12-12T06:21:29.768Z,-1.06
2022-12-12T06:24:32.146Z,-1.02
2022-12-12T06:27:34.495Z,-0.90
2022-12-12T06:30:36.910Z,-1.01
2022-12-12T06:33:40.259Z,-1.06
2022-12-12T06:36:42.857Z,-1.00
2022-12-12T06:39:45.273Z,-1.19
2022-12-12T06:42:48.733Z,-1.11
2022-12-12T06:45:51.570Z,-1.16
2022-12-12T06:48:55.065Z,-1.28
2022-12-12T06:51:57.391Z,-1.38
2022-12-12T06:54:59.773Z,-1.32
2022-12-12T06:58:02.194Z,-1.40
2022-12-12T07:01:05.467Z,-1.38
2022-12-12T07:04:07.917Z,-1.54
2022-12-12T07:07:10.347Z,-1.34
2022-12-12T07:10:12.730Z,-1.56
2022-12-12T07:13:15.350Z,-1.25
2022-12-12T07:16:18.816Z,-1.39
2022-12-12T07:19:22.812Z,-1.39
2022-12-12T07:22:25.185Z,-1.26
2022-12-12T07:25:27.609Z,-1.36
2022-12-12T07:28:30.112Z,-1.46
2022-12-12T07:31:32.803Z,-1.39
2022-12-12T07:34:35.128Z,-1.40
2022-12-12T07:37:37.468Z,-1.31
2022-12-12T07:40:40.203Z,-1.26
2022-12-12T07:43:44.853Z,-1.23
2022-12-12T07:46:47.465Z,-1.12
2022-12-12T07:49:50.004Z,-1.24
2022-12-12T07:52:52.445Z,-1.17
2022-12-12T07:55:54.952Z,-1.25
2022-12-12T07:58:57.449Z,-1.11
2022-12-12T08:01:59.918Z,-1.08
2022-12-12T08:05:02.380Z,-1.05
2022-12-12T08:08:05.195Z,-0.95
2022-12-12T08:11:08.726Z,-0.81
2022-12-12T08:14:13.249Z,-0.91
2022-12-12T08:17:16.027Z,-0.73
2022-12-12T08:20:18.490Z,-0.76
2022-12-12T08:23:20.945Z,-0.73
2022-12-12T08:26:23.233Z,-0.63
2022-12-12T08:29:25.578Z,-0.62
2022-12-12T08:32:28.219Z,-0.67
2022-12-12T08:35:31.652Z,-0.70
2022-12-12T08:38:33.981Z,-0.49
2022-12-12T08:41:38.540Z,-0.63
2022-12-12T08:44:41.186Z,-0.70
2022-12-12T08:47:43.622Z,-0.59
2022-12-12T08:50:45.901Z,-0.45
2022-12-12T08:53:49.285Z,-0.60
2022-12-12T08:56:51.685Z,-0.59
2022-12-12T08:59:54.001Z,-0.77
2022-12-12T09:02:56.576Z,-0.50
2022-12-12T09:05:59.050Z,-0.66
2022-12-12T09:09:01.427Z,-0.53
2022-12-12T09:12:04.279Z,-0.57
2022-12-12T09:15:07.539Z,-0.41
2022-12-12T09:18:09.969Z,-0.49
2022-12-12T09:21:12.275Z,-0.35
2022-12-12T09:24:14.757Z,-0.37
2022-12-12T09:27:17.267Z,-0.36
2022-12-12T09:30:19.858Z,-0.33
2022-12-12T09:33:22.220Z,-0.19
2022-12-12T09:36:25.304Z,0.01
2022-12-12T09:39:27.628Z,0.04
2022-12-12T09:42:32.485Z,0.02
2022-12-12T09:45:39.386Z,0.05
2022-12-12T09:48:44.674Z,0.02
2022-12-12T09:51:49.308Z,0.05
2022-12-12T09:54:51.647Z,0.13
2022-12-12T09:58:00.695Z,0.17
2022-12-12T10:01:26.058Z,0.20
2022-12-12T10:04:38.932Z,0.29
2022-12-12T10:08:01.620Z,0.18
2022-12-12T10:11:08.341Z,0.42
2022-12-12T10:14:11.193Z,0.38
2022-12-12T10:17:36.089Z,0.31
2022-12-12T10:20:53.304Z,0.29
2022-12-12T10:24:15.891Z,0.11
2022-12-12T10:27:18.374Z,0.20
2022-12-12T10:30:21.376Z,0.30
2022-12-12T10:33:36.350Z,0.28
2022-12-12T10:37:35.965Z,0.50
2022-12-12T10:40:56.904Z,0.38
2022-12-12T10:44:48.817Z,0.42
2022-12-12T10:47:51.227Z,0.55
2022-12-12T10:50:58.408Z,0.46
2022-12-12T10:54:00.793Z,0.63
2022-12-12T10:57:20.093Z,0.55
2022-12-12T11:00:28.185Z,0.54
2022-12-12T11:03:37.112Z,0.52
2022-12-12T11:06:48.037Z,0.86
2022-12-12T11:09:52.673Z,0.56
2022-12-12T11:13:02.951Z,0.55
2022-12-12T11:16:15.228Z,0.69
2022-12-12T11:19:22.684Z,0.65
2022-12-12T11:22:25.617Z,0.66
2022-12-12T11:25:31.758Z,0.56
2022-12-12T11:28:37.082Z,0.66
2022-12-12T11:31:40.145Z,0.82
2022-12-12T11:34:46.234Z,0.91
2022-12-12T11:37:51.013Z,0.85
2022-12-12T11:41:07.484Z,0.79
2022-12-12T11:44:25.944Z,0.77
2022-12-12T11:47:38.496Z,0.81
2022-12-12T11:50:46.531Z,0.98
2022-12-12T11:53:48.904Z,0.98
2022-12-12T11:56:55.213Z,0.94
2022-12-12T12:00:06.713Z,0.93
2022-12-12T12:03:37.071Z,1.06
2022-12-12T12:06:56.134Z,0.86
2022-12-12T12:10:32.244Z,0.83
2022-12-12T12:14:13.924Z,0.81
2022-12-12T12:17:49.298Z,0.81
2022-12-12T12:21:30.232Z,0.61
2022-12-12T12:24:35.514Z,0.78
2022-12-12T12:27:43.558Z,0.83
2022-12-12T12:30:58.649Z,0.78
2022-12-12T12:34:25.305Z,0.89
2022-12-12T12:37:53.839Z,0.88
2022-12-12T12:41:14.744Z,0.93
2022-12-12T12:44:37.150Z,0.89
2022-12-12T12:47:50.328Z,0.82
2022-12-12T12:51:04.744Z,0.95
2022-12-12T12:54:15.756Z,1.03
2022-12-12T12:57:22.497Z,1.14
2022-12-12T13:00:27.550Z,0.99
2022-12-12T13:03:35.742Z,0.94
2022-12-12T13:06:46.997Z,1.08
2022-12-12T13:10:09.216Z,0.91
2022-12-12T13:13:32.391Z,0.82
2022-12-12T13:16:34.940Z,0.79
2022-12-12T13:19:41.224Z,0.97
2022-12-12T13:22:55.282Z,1.11
2022-12-12T13:26:01.159Z,0.82
2022-12-12T13:29:14.976Z,0.71
2022-12-12T13:32:38.171Z,0.74
2022-12-12T13:35:46.065Z,0.87
2022-12-12T13:38:51.043Z,0.70
2022-12-12T13:41:59.241Z,0.73
2022-12-12T13:45:42.291Z,0.72
2022-12-12T13:48:46.975Z,0.78
2022-12-12T13:51:49.674Z,0.73
2022-12-12T13:54:56.034Z,0.83
2022-12-12T13:58:10.278Z,0.70
2022-12-12T14:01:41.706Z,0.54
2022-12-12T14:04:44.802Z,0.60
2022-12-12T14:07:50.097Z,0.65
2022-12-12T14:11:02.106Z,0.65
2022-12-12T14:14:18.267Z,0.52
2022-12-12T14:17:23.557Z,0.54
2022-12-12T14:20:34.316Z,0.47
2022-12-12T14:23:42.409Z,0.36
2022-12-12T14:26:44.930Z,0.27
2022-12-12T14:29:47.273Z,0.08
2022-12-12T14:33:09.728Z,0.26
2022-12-12T14:36:22.505Z,0.33
2022-12-12T14:39:55.617Z,0.24
2022-12-12T14:43:23.553Z,0.32
2022-12-12T14:46:26.033Z,0.33
2022-12-12T14:49:28.478Z,0.31
2022-12-12T14:52:30.877Z,0.47
2022-12-12T14:55:33.166Z,0.48
2022-12-12T14:58:39.595Z,0.33
2022-12-12T15:01:48.009Z,0.26
2022-12-12T15:04:55.192Z,0.08
2022-12-12T15:07:59.889Z,-0.01
2022-12-12T15:11:02.592Z,0.10
2022-12-12T15:14:05.276Z,-0.18
2022-12-12T15:17:28.378Z,-0.06
2022-12-12T15:20:32.392Z,-0.02
2022-12-12T15:23:34.778Z,-0.27
2022-12-12T15:26:37.241Z,-0.02
2022-12-12T15:29:39.648Z,-0.12
2022-12-12T15:32:46.640Z,-0.27
2022-12-12T15:36:01.946Z,-0.35
2022-12-12T15:39:07.391Z,-0.20
2022-12-12T15:42:13.460Z,-0.46
2022-12-12T15:45:25.907Z,-0.40
2022-12-12T15:48:29.101Z,-0.29
2022-12-12T15:51:32.464Z,-0.12
2022-12-12T15:54:34.714Z,-0.10
2022-12-12T15:57:48.252Z,-0.11
2022-12-12T16:00:52.313Z,-0.16
2022-12-12T16:03:55.968Z,-0.20
2022-12-12T16:07:15.522Z,-0.16
2022-12-12T16:10:17.853Z,-0.05
2022-12-12T16:13:23.412Z,-0.30
2022-12-12T16:16:45.596Z,-0.47
2022-12-12T16:20:07.426Z,-0.26
2022-12-12T16:23:22.909Z,-0.11
2022-12-12T16:26:25.249Z,-0.26
2022-12-12T16:29:27.589Z,-0.26
2022-12-12T16:32:29.939Z,-0.34
2022-12-12T16:35:32.314Z,-0.45
2022-12-12T16:38:36.162Z,-0.48
2022-12-12T16:41:38.529Z,-0.30
2022-12-12T16:44:41.005Z,-0.50
2022-12-12T16:47:43.308Z,-0.34
2022-12-12T16:50:46.188Z,-0.62
2022-12-12T16:53:48.698Z,-0.50
2022-12-12T16:56:52.787Z,-0.43
2022-12-12T16:59:55.199Z,-0.49
2022-12-12T17:02:57.591Z,-0.68
2022-12-12T17:06:00.745Z,-0.53
2022-12-12T17:09:03.136Z,-0.31
2022-12-12T17:12:05.740Z,-0.13
2022-12-12T17:15:08.652Z,-0.38
2022-12-12T17:18:11.618Z,-0.13
2022-12-12T17:21:14.096Z,-0.30
2022-12-12T17:24:16.462Z,-0.03
2022-12-12T17:27:18.902Z,-0.42
2022-12-12T17:30:22.143Z,-0.28
2022-12-12T17:33:24.456Z,-0.21
2022-12-12T17:36:26.819Z,-0.47
2022-12-12T17:39:29.272Z,-0.83
2022-12-12T17:42:32.342Z,-0.71
2022-12-12T17:45:34.944Z,-0.61
2022-12-12T17:48:37.470Z,-0.84
2022-12-12T17:51:39.812Z,-0.68
2022-12-12T17:54:42.153Z,-0.94
2022-12-12T17:57:44.480Z,-0.93
2022-12-12T18:00:46.858Z,-0.90
2022-12-12T18:03:49.705Z,-0.94
2022-12-12T18:06:52.293Z,-1.17
2022-12-12T18:09:55.028Z,-1.16
2022-12-12T18:12:57.434Z,-0.99
2022-12-12T18:16:00.441Z,-1.05
2022-12-12T18:19:03.011Z,-1.15
2022-12-12T18:22:05.376Z,-1.09
2022-12-12T18:25:08.049Z,-0.84
2022-12-12T18:28:12.472Z,-0.92
2022-12-12T18:31:15.183Z,-1.03
2022-12-12T18:34:17.948Z,-1.17
2022-12-12T18:37:20.325Z,-1.14
2022-12-12T18:40:22.877Z,-1.23
2022-12-12T18:43:29.645Z,-1.35
2022-12-12T18:46:35.957Z,-1.35
2022-12-12T18:49:42.884Z,-1.12
2022-12-12T18:52:45.273Z,-1.29
2022-12-12T18:55:47.670Z,-1.54
2022-12-12T18:58:50.110Z,-1.28
2022-12-12T19:01:53.040Z,-1.60
2022-12-12T19:04:55.449Z,-1.36
2022-12-12T19:07:58.146Z,-1.17
2022-12-12T19:11:00.610Z,-1.28
2022-12-12T19:14:02.981Z,-1.23
2022-12-12T19:17:05.509Z,-1.07
2022-12-12T19:20:08.480Z,-1.23
2022-12-12T19:23:10.753Z,-1.28
2022-12-12T19:26:15.990Z,-1.32
2022-12-12T19:29:20.666Z,-1.37
2022-12-12T19:32:22.942Z,-1.36
2022-12-12T19:35:25.399Z,-1.33
2022-12-12T19:38:27.775Z,-1.47
2022-12-12T19:41:30.370Z,-1.54
2022-12-12T19:44:32.715Z,-1.34
2022-12-12T19:47:35.746Z,-1.41
2022-12-12T19:50:38.450Z,-1.57
2022-12-12T19:53:42.796Z,-1.72
2022-12-12T19:56:46.957Z,-1.59
2022-12-12T19:59:49.750Z,-1.78
2022-12-12T20:02:52.321Z,-1.57
2022-12-12T20:06:02.684Z,-1.73
2022-12-12T20:09:05.172Z,-1.74
2022-12-12T20:12:07.653Z,-1.81
2022-12-12T20:15:10.438Z,-1.96
2022-12-12T20:18:16.334Z,-1.83
2022-12-12T20:21:51.239Z,-1.76
2022-12-12T20:24:45.027Z,-1.81
2022-12-12T20:27:47.458Z,-1.83
2022-12-12T20:30:53.420Z,-1.95
2022-12-12T20:33:57.715Z,-1.80
2022-12-12T20:37:00.129Z,-1.84
2022-12-12T20:40:02.579Z,-1.71
2022-12-12T20:43:05.034Z,-1.95
2022-12-12T20:46:20.879Z,-2.22
2022-12-12T20:49:24.877Z,-1.92
2022-12-12T20:52:27.384Z,-1.82
2022-12-12T20:55:29.745Z,-1.96
2022-12-12T20:58:32.643Z,-1.89
2022-12-12T21:01:36.358Z,-1.68
2022-12-12T21:04:38.636Z,-1.65
2022-12-12T21:07:41.027Z,-1.51
2022-12-12T21:10:43.642Z,-1.61
2022-12-12T21:13:46.185Z,-1.71
2022-12-12T21:16:48.765Z,-1.64
2022-12-12T21:19:51.237Z,-1.75
2022-12-12T21:22:53.555Z,-1.92
2022-12-12T21:25:55.886Z,-1.91
2022-12-12T21:29:04.536Z,-1.86
2022-12-12T21:32:07.146Z,-2.21
2022-12-12T21:35:09.637Z,-2.13
2022-12-12T21:38:12.166Z,-2.27
2022-12-12T21:41:17.355Z,-2.25
2022-12-12T21:44:21.459Z,-2.13
2022-12-12T21:47:23.837Z,-2.32
2022-12-12T21:50:30.526Z,-2.27
2022-12-12T21:53:34.226Z,-2.30
2022-12-12T21:56:36.823Z,-2.42
2022-12-12T21:59:39.571Z,-2.49
2022-12-12T22:02:44.770Z,-2.48
2022-12-12T22:05:49.406Z,-2.63
2022-12-12T22:08:52.154Z,-2.49
2022-12-12T22:12:03.087Z,-2.63
2022-12-12T22:15:07.028Z,-2.61
2022-12-12T22:18:09.615Z,-2.46
2022-12-12T22:21:15.368Z,-2.70
2022-12-12T22:24:18.036Z,-2.37
2022-12-12T22:27:20.659Z,-2.40
2022-12-12T22:30:23.031Z,-2.44
2022-12-12T22:33:25.308Z,-2.04
2022-12-12T22:36:30.251Z,-2.17
2022-12-12T22:39:32.613Z,-2.23
2022-12-12T22:42:34.956Z,-2.17
2022-12-12T22:45:37.214Z,-1.99
2022-12-12T22:48:39.635Z,-2.14
2022-12-12T22:51:42.907Z,-2.26
2022-12-12T22:54:45.425Z,-2.56
2022-12-12T22:57:49.143Z,-2.68
2022-12-12T23:00:51.503Z,-2.71
2022-12-12T23:03:54.880Z,-2.51
2022-12-12T23:06:57.308Z,-2.48
2022-12-12T23:09:59.613Z,-2.66
2022-12-12T23:13:01.905Z,-2.63
2022-12-12T23:16:09.728Z,-2.63
2022-12-12T23:19:14.761Z,-2.62
2022-12-12T23:22:17.906Z,-2.62
2022-12-12T23:25:20.346Z,-2.60
2022-12-12T23:28:22.893Z,-2.93
2022-12-12T23:31:28.472Z,-2.73
2022-12-12T23:34:31.114Z,-2.83
2022-12-12T23:37:33.415Z,-2.71
2022-12-12T23:40:35.799Z,-2.94
2022-12-12T23:43:38.570Z,-2.85
2022-12-12T23:46:41.225Z,-2.74
2022-12-12T23:49:43.840Z,-3.03
2022-12-12T23:52:46.199Z,-3.11
2022-12-12T23:55:48.629Z,-2.82
2022-12-12T23:58:53.172Z,-2.88
